• Join FlightAware (Why Join?)
  • Login
  • US Flag 
02:29AM EDT


 

Airport Tracker/Info


-or-


 

Live Flight TrackerFlight Track Log ✈ EJA941 ✈ 03-May-2013 ✈ KSFO - KSMO

Flight Track Log - Related Links

Times and Time Zones

All times are in EDT time to prevent confusion due to time zone crossing. See the EJA941 flight status page for this flight to view local times or setup timezone preferences in your user account.

Time Position Orientation Groundspeed Altitude Reporting Facility
EDT Latitude Longitude Course Direction KTS MPH feet Rate Location/Type
12:54PM 37.6333 -122.3667 360° North 188 216 1,100  Level Northern Cal TRACON
12:55PM 37.7000 -122.3667 360° North 246 283 5,000 4,200 Climbing Northern Cal TRACON
12:56PM 37.7333 -122.4167 310° West 286 329 9,500 3,600 Climbing Northern Cal TRACON
12:57PM 37.6500 -122.4833 212° Southwest 366 421 12,200 2,820 Climbing Northern Cal TRACON
12:58PM 37.5817 -122.5067 195° South 366 421 14,700 2,880 Climbing Oakland Center
12:59PM 37.4708 -122.4300 151° Southeast 399 459 17,600 2,460 Climbing Oakland Center
01:00PM 37.3856 -122.3378 139° Southeast 408 470 19,800 2,340 Climbing Oakland Center
01:01PM 37.2931 -122.2611 147° Southeast 402 463 22,500 2,340 Climbing Oakland Center
01:02PM 37.2053 -122.1694 140° Southeast 413 475 24,700 2,040 Climbing Oakland Center
01:03PM 37.1164 -122.0689 138° Southeast 429 494 26,800 2,040 Climbing Oakland Center
01:04PM 37.0247 -121.9642 138° Southeast 445 512 28,900 1,680 Climbing Oakland Center
01:05PM 36.9289 -121.8564 138° Southeast 464 534 30,300 960 Climbing Oakland Center
01:06PM 36.8097 -121.7219 138° Southeast 496 571 30,900 240 Climbing Oakland Center
01:07PM 36.7022 -121.6006 138° Southeast 518 596 30,900  Level Oakland Center
01:08PM 36.5939 -121.4789 138° Southeast 522 601 30,900  Level Oakland Center
01:09PM 36.4858 -121.3614 139° Southeast 518 596 30,900  Level Oakland Center
01:10PM 36.3783 -121.2436 139° Southeast 516 594 30,900  Level Oakland Center
01:11PM 36.2700 -121.1256 139° Southeast 517 595 30,900  Level Oakland Center
01:12PM 36.1625 -121.0083 139° Southeast 516 594 30,900  Level Oakland Center
01:13PM 36.0547 -120.8919 139° Southeast 515 593 31,000  Climbing Oakland Center
01:14PM 35.9244 -120.7528 139° Southeast 515 593 31,000  Level Oakland Center
01:15PM 35.8169 -120.6356 139° Southeast 516 594 31,000  Level Oakland Center
01:16PM 35.7089 -120.5197 139° Southeast 515 593 31,000  Level Oakland Center
01:17PM 35.6000 -120.4039 139° Southeast 514 592 31,000  Level Oakland Center
01:18PM 35.4903 -120.2853 139° Southeast 515 593 31,000  Level Oakland Center
01:19PM 35.3781 -120.1642 139° Southeast 520 598 31,000  Level Oakland Center
01:20PM 35.2669 -120.0486 140° Southeast 520 598 31,000 -480 Level Oakland Center
01:21PM 35.1581 -119.9347 139° Southeast 516 594 30,100 -1,860 Descending Oakland Center
01:22PM 35.0486 -119.8089 137° Southeast 535 616 27,300 -2,880 Descending Oakland Center
01:23PM 34.9353 -119.6525 131° Southeast 518 596 24,000 -2,760 Descending Los Angeles Center
01:24PM 34.8447 -119.5317 132° Southeast 492 566 21,500 -2,460 Descending Los Angeles Center
01:25PM 34.7564 -119.4147 133° Southeast 475 547 19,000 -2,400 Descending Los Angeles Center
01:27PM 34.6750 -119.3033 132° Southeast 449 517 16,600 -2,100 Descending Los Angeles Center
01:28PM 34.6017 -119.2069 133° Southeast 381 438 14,700 -1,800 Descending Los Angeles Center
01:29PM 34.5400 -119.1250 132° Southeast 337 388 12,900 -1,800 Descending Los Angeles Center
01:30PM 34.4719 -119.0336 132° Southeast 303 349 11,000 -960 Descending Los Angeles Center
01:31PM 34.4156 -118.9589 132° Southeast 298 343 11,000 -1,020 Level Los Angeles Center
01:32PM 34.3608 -118.8864 132° Southeast 292 336 9,000 -1,860 Descending Los Angeles Center
01:33PM 34.3294 -118.8003 114° Southeast 275 316 7,200 -1,020 Descending Los Angeles Center
01:34PM 34.3019 -118.7192 112° Southeast 262 302 7,000 -120 Descending Los Angeles Center
01:35PM 34.2719 -118.6336 113° Southeast 272 313 7,000  Level Los Angeles Center
01:35PM 34.2500 -118.5667 112° Southeast 274 315 7,000  Level Southern California TRACON
01:36PM 34.2167 -118.4833 116° Southeast 273 314 7,000 -660 Level Southern California TRACON
01:37PM 34.2000 -118.4000 104° East 238 274 5,700 -1,320 Descending Southern California TRACON
01:38PM 34.1872 -118.3717 119° Southeast 242 278 5,100 -720 Descending Los Angeles Center
01:39PM 34.1481 -118.3472 153° Southeast 207 238 4,600 -960 Descending Los Angeles Center
01:40PM 34.0978 -118.3628 194° South 193 222 3,200 -1,440 Descending Los Angeles Center
01:41PM 34.0581 -118.4031 220° Southwest 192 221 1,700 -1,440 Descending Los Angeles Center
01:42PM 34.0211 -118.4444 223° Southwest 167 192 300 -1,380 Descending Los Angeles Center
01:44PM 34.0158 -118.4513 220° Southwest  Level Estimated